Highwood, MT (59450)

4:22 PM MDT on September 03, 2015 (GMT -0600)
APRSWXNET | | Change Station
CLOSE
Current Station
Personal Weather Station
Location: Highwood, MT
Elevation: 3487 ft
Nearby Weather Stations

Elev 3487 ft 47.50 °N, 110.86 °W | Updated 22 minutes ago

Mostly Cloudy
Mostly Cloudy
66 °F
Feels Like 66 °F
N
12
Wind Variable Wind from North
Gusts 0.0 mph

Today
High -- | Low -- °F
--% Chance of Precip.
Yesterday
High -- | Low -- °F
Precip. -- in
6:44 AM 7:59 PM
Waning Gibbous, 66% visible
Pressure 29.91 in
Visibility 10.0 miles
Clouds Scattered Clouds 9000 ft
Mostly Cloudy 10000 ft
Dew Point 40 °F
Humidity 38%
Rainfall in
Snow Depth Not available.
UV 3 out of 12
Pollen 7.40 out of 12
Air Quality Not available.
Flu Activity Not available.
METAR KGFA 032156Z AUTO 01011KT 10SM SCT090 BKN100 17/05 A2990 RMK AO2 RAB00E16SHRAB16E28 SLP126 T01700048 TSNO $
Pressure 29.91 in
Visibility 10.0 miles
Clouds Scattered Clouds 9000 ft
Mostly Cloudy 10000 ft
Dew Point 40 °F
Humidity 38%
Rainfall in
Snow Depth Not available.
UV 3 out of 12
Pollen 7.40 out of 12
Air Quality Not available.
Flu Activity Not available.
METAR KGFA 032156Z AUTO 01011KT 10SM SCT090 BKN100 17/05 A2990 RMK AO2 RAB00E16SHRAB16E28 SLP126 T01700048 TSNO $

10-Day Weather Forecast

×

Almanac

Astronomy

Sep. 03, 2015 Rise Set
Actual Time
Civil Twilight
Nautical Twilight
Astronomical Twilight
Moon
Length of Visible Light
Length of Day
Tomorrow will be .
, % of the Moon is Illuminated

Today's Extremes

State Highs State Lows

Community

WunderPhotos

Upload Photos

1,852,048 photos uploaded!

WunderBlogs® & News

Nearby

Air Quality

  Air Quality AQ Index Pollutant
Not available.

Snow Depth

Station Depth Elevation

Earthquake Activity

City Distance Mag. Time & Date
Minimum magnitude displayed is 2.5.

Coastal Water Temperatures

Place Temperature

Stations

Nearby Weather Stations

Station Location Temp. Windchill Dew Point Humidity Wind Precip. Elev Updated Type